createdAt,value
2023-05-19T00:01:32.043Z,4.93
2023-05-19T00:04:02.715Z,8.27
2023-05-19T00:06:32.644Z,9.23
2023-05-19T00:09:02.175Z,6.45
2023-05-19T00:11:30.661Z,9.90
2023-05-19T00:14:00.042Z,5.80
2023-05-19T00:16:30.107Z,5.93
2023-05-19T00:19:00.253Z,7.13
2023-05-19T00:21:28.342Z,7.95
2023-05-19T00:23:56.090Z,7.60
2023-05-19T00:26:24.068Z,7.22
2023-05-19T00:28:52.072Z,8.07
2023-05-19T00:31:19.831Z,8.65
2023-05-19T00:33:48.939Z,6.53
2023-05-19T00:36:16.669Z,9.02
2023-05-19T00:38:44.356Z,5.95
2023-05-19T00:41:12.165Z,6.40
2023-05-19T00:43:39.884Z,7.90
2023-05-19T00:46:08.277Z,8.40
2023-05-19T00:48:36.046Z,7.60
2023-05-19T00:51:06.655Z,7.80
2023-05-19T00:53:35.444Z,6.47
2023-05-19T00:56:04.356Z,7.75
2023-05-19T00:58:32.772Z,6.57
2023-05-19T01:01:03.661Z,8.52
2023-05-19T01:03:32.766Z,5.65
2023-05-19T01:06:05.143Z,7.10
2023-05-19T01:08:35.645Z,7.57
2023-05-19T01:11:03.656Z,7.05
2023-05-19T01:13:31.615Z,9.38
2023-05-19T01:16:03.059Z,9.32
2023-05-19T01:18:40.617Z,7.68
2023-05-19T01:21:36.463Z,7.43
2023-05-19T01:24:18.304Z,9.27
2023-05-19T01:27:02.805Z,9.93
2023-05-19T01:29:44.266Z,8.90
2023-05-19T01:32:14.586Z,7.97
2023-05-19T01:34:47.423Z,5.80
2023-05-19T01:37:16.215Z,8.70
2023-05-19T01:39:44.072Z,11.48
2023-05-19T01:42:12.136Z,7.67
2023-05-19T01:44:40.035Z,9.20
2023-05-19T01:47:08.488Z,11.43
2023-05-19T01:49:37.696Z,7.73
2023-05-19T01:52:05.733Z,7.30
2023-05-19T01:54:33.475Z,10.43
2023-05-19T01:57:07.179Z,8.13
2023-05-19T01:59:42.984Z,7.10
2023-05-19T02:02:17.952Z,7.82
2023-05-19T02:04:52.685Z,11.07
2023-05-19T02:07:28.436Z,7.80
2023-05-19T02:10:03.972Z,10.13
2023-05-19T02:12:34.982Z,8.27
2023-05-19T02:15:06.605Z,6.57
2023-05-19T02:17:37.576Z,8.68
2023-05-19T02:20:08.858Z,8.65
2023-05-19T02:22:37.007Z,8.52
2023-05-19T02:25:04.991Z,8.07
2023-05-19T02:27:32.704Z,9.02
2023-05-19T02:30:00.393Z,8.70
2023-05-19T02:32:28.214Z,7.15
2023-05-19T02:34:56.607Z,8.37
2023-05-19T02:37:28.352Z,8.55
2023-05-19T02:39:56.559Z,9.30
2023-05-19T02:42:24.260Z,9.53
2023-05-19T02:44:52.445Z,10.57
2023-05-19T02:47:20.109Z,9.57
2023-05-19T02:49:47.794Z,9.60
2023-05-19T02:52:15.500Z,7.88
2023-05-19T02:54:44.652Z,9.80
2023-05-19T02:57:12.450Z,9.00
2023-05-19T02:59:40.189Z,10.00
2023-05-19T03:02:07.889Z,8.23
2023-05-19T03:04:42.153Z,10.37
2023-05-19T03:07:11.145Z,9.77
2023-05-19T03:09:38.906Z,9.73
2023-05-19T03:12:08.630Z,9.15
2023-05-19T03:14:38.521Z,9.85
2023-05-19T03:17:08.447Z,9.43
2023-05-19T03:19:36.345Z,9.85
2023-05-19T03:22:04.092Z,9.68
2023-05-19T03:24:31.868Z,10.00
2023-05-19T03:26:59.590Z,9.82
2023-05-19T03:29:28.706Z,11.35
2023-05-19T03:31:56.460Z,9.25
2023-05-19T03:34:24.170Z,10.35
2023-05-19T03:36:51.905Z,10.30
2023-05-19T03:39:19.565Z,10.88
2023-05-19T03:41:47.276Z,9.95
2023-05-19T03:44:15.034Z,11.32
2023-05-19T03:46:44.128Z,9.45
2023-05-19T03:49:11.886Z,11.43
2023-05-19T03:51:39.661Z,9.55
2023-05-19T03:54:07.373Z,11.75
2023-05-19T03:56:35.151Z,12.55
2023-05-19T03:59:02.838Z,9.45
2023-05-19T04:01:30.691Z,10.82
2023-05-19T04:03:59.791Z,10.93
2023-05-19T04:06:27.634Z,9.15
2023-05-19T04:08:55.818Z,9.45
2023-05-19T04:11:23.567Z,9.32
2023-05-19T04:13:51.266Z,8.93
2023-05-19T04:16:19.119Z,9.90
2023-05-19T04:18:46.904Z,8.95
2023-05-19T04:21:15.972Z,8.55
2023-05-19T04:23:43.658Z,10.73
2023-05-19T04:26:12.261Z,9.63
2023-05-19T04:28:42.403Z,9.93
2023-05-19T04:31:11.002Z,12.02
2023-05-19T04:33:38.905Z,9.20
2023-05-19T04:36:08.601Z,7.73
2023-05-19T04:38:40.407Z,7.97
2023-05-19T04:41:10.698Z,9.40
2023-05-19T04:43:41.824Z,10.68
2023-05-19T04:46:12.231Z,9.25
2023-05-19T04:48:41.263Z,13.55
2023-05-19T04:51:09.041Z,8.85
2023-05-19T04:53:40.206Z,10.55
2023-05-19T04:56:08.287Z,10.70
2023-05-19T04:58:36.038Z,10.27
2023-05-19T05:01:04.416Z,12.18
2023-05-19T05:03:34.422Z,11.47
2023-05-19T05:06:02.291Z,13.27
2023-05-19T05:08:30.310Z,9.50
2023-05-19T05:11:00.127Z,10.90
2023-05-19T05:13:28.520Z,9.68
2023-05-19T05:15:56.866Z,8.88
2023-05-19T05:18:25.088Z,9.82
2023-05-19T05:20:54.185Z,8.05
2023-05-19T05:23:22.405Z,9.65
2023-05-19T05:25:50.626Z,10.57
2023-05-19T05:28:19.782Z,9.80
2023-05-19T05:30:47.516Z,8.15
2023-05-19T05:33:15.290Z,10.35
2023-05-19T05:35:43.038Z,10.45
2023-05-19T05:38:11.537Z,9.32
2023-05-19T05:40:39.348Z,8.13
2023-05-19T05:43:07.088Z,10.32
2023-05-19T05:45:36.183Z,8.68
2023-05-19T05:48:04.523Z,8.15
2023-05-19T05:50:32.916Z,9.38
2023-05-19T05:53:02.829Z,9.07
2023-05-19T05:55:31.633Z,9.27
2023-05-19T05:58:02.077Z,8.43
2023-05-19T06:00:30.024Z,8.15
2023-05-19T06:02:59.432Z,6.38
2023-05-19T06:05:27.393Z,8.48
2023-05-19T06:07:55.200Z,7.57
2023-05-19T06:10:23.226Z,7.60
2023-05-19T06:12:50.955Z,8.55
2023-05-19T06:15:18.692Z,7.82
2023-05-19T06:17:46.372Z,6.88
2023-05-19T06:20:16.301Z,8.40
2023-05-19T06:22:44.031Z,6.47
2023-05-19T06:25:11.809Z,6.47
2023-05-19T06:27:39.579Z,9.25
2023-05-19T06:30:10.557Z,6.73
2023-05-19T06:32:38.525Z,6.55
2023-05-19T06:35:07.144Z,8.80
2023-05-19T06:37:36.524Z,6.50
2023-05-19T06:40:05.682Z,6.55
2023-05-19T06:42:33.467Z,8.70
2023-05-19T06:45:01.245Z,6.20
2023-05-19T06:47:29.084Z,7.28
2023-05-19T06:49:57.080Z,8.93
2023-05-19T06:52:25.496Z,7.77
2023-05-19T06:54:54.611Z,7.40
2023-05-19T06:57:22.410Z,6.82
2023-05-19T06:59:50.146Z,6.55
2023-05-19T07:02:17.946Z,7.32
2023-05-19T07:04:45.948Z,8.60
2023-05-19T07:07:13.646Z,7.75
2023-05-19T07:09:41.370Z,6.18
2023-05-19T07:12:10.577Z,7.10
2023-05-19T07:14:38.919Z,6.70
2023-05-19T07:17:06.645Z,7.82
2023-05-19T07:19:34.324Z,6.47
2023-05-19T07:22:02.048Z,6.47
2023-05-19T07:24:30.493Z,5.72
2023-05-19T07:26:58.162Z,5.80
2023-05-19T07:29:27.315Z,7.68
2023-05-19T07:31:57.986Z,9.95
2023-05-19T07:34:26.241Z,6.32
2023-05-19T07:36:54.033Z,6.13
2023-05-19T07:39:21.894Z,7.60
2023-05-19T07:41:52.837Z,7.22
2023-05-19T07:44:20.654Z,4.95
2023-05-19T07:46:49.738Z,7.60
2023-05-19T07:49:17.496Z,6.72
2023-05-19T07:51:45.328Z,8.23
2023-05-19T07:54:12.975Z,6.87
2023-05-19T07:56:40.691Z,6.68
2023-05-19T07:59:08.511Z,7.13
2023-05-19T08:01:36.542Z,7.43
2023-05-19T08:04:06.197Z,5.28
2023-05-19T08:06:35.174Z,6.97
2023-05-19T08:09:03.714Z,6.00
2023-05-19T08:11:31.651Z,5.53
2023-05-19T08:13:59.433Z,5.47
2023-05-19T08:16:27.546Z,7.38
2023-05-19T08:18:55.470Z,5.97
2023-05-19T08:21:24.609Z,3.25
2023-05-19T08:23:52.337Z,4.60
2023-05-19T08:26:19.987Z,4.50
2023-05-19T08:28:47.708Z,3.67
2023-05-19T08:31:15.574Z,3.60
2023-05-19T08:33:43.352Z,3.92
2023-05-19T08:36:11.067Z,5.43
2023-05-19T08:38:40.386Z,6.05
2023-05-19T08:41:08.364Z,4.57
2023-05-19T08:43:36.108Z,3.10
2023-05-19T08:46:06.324Z,4.10
2023-05-19T08:48:34.724Z,4.18
2023-05-19T08:51:15.819Z,6.63
2023-05-19T08:53:50.213Z,5.50
2023-05-19T08:56:22.646Z,4.17
2023-05-19T08:58:51.164Z,4.30
2023-05-19T09:01:19.718Z,4.35
2023-05-19T09:03:49.891Z,4.43
2023-05-19T09:06:17.969Z,4.85
2023-05-19T09:08:47.153Z,4.43
2023-05-19T09:11:15.001Z,4.93
2023-05-19T09:13:42.867Z,5.88
2023-05-19T09:16:10.824Z,9.13
2023-05-19T09:18:40.658Z,2.92
2023-05-19T09:21:10.255Z,4.43
2023-05-19T09:23:38.050Z,4.85
2023-05-19T09:26:07.749Z,3.28
2023-05-19T09:28:36.805Z,4.30
2023-05-19T09:31:05.432Z,3.40
2023-05-19T09:33:34.698Z,4.45
2023-05-19T09:36:05.919Z,4.30
2023-05-19T09:38:33.819Z,3.73
2023-05-19T09:41:02.291Z,4.10
2023-05-19T09:43:33.491Z,4.13
2023-05-19T09:46:02.341Z,3.23
2023-05-19T09:48:30.287Z,5.50
2023-05-19T09:50:58.164Z,3.40
2023-05-19T09:53:26.280Z,4.83
2023-05-19T09:55:57.543Z,3.40
2023-05-19T09:58:26.333Z,3.72
2023-05-19T10:00:56.872Z,3.65
2023-05-19T10:03:24.999Z,5.35
2023-05-19T10:05:53.902Z,6.88
2023-05-19T10:08:21.986Z,5.93
2023-05-19T10:10:49.708Z,4.60
2023-05-19T10:13:17.616Z,3.72
2023-05-19T10:15:57.178Z,3.90
2023-05-19T10:18:29.370Z,2.70
2023-05-19T10:20:57.832Z,4.85
2023-05-19T10:23:25.678Z,4.47
2023-05-19T10:25:55.380Z,4.27
2023-05-19T10:28:25.338Z,3.75
2023-05-19T10:30:56.128Z,4.07
2023-05-19T10:33:34.346Z,2.35
2023-05-19T10:36:15.022Z,3.08
2023-05-19T10:38:44.100Z,4.72
2023-05-19T10:41:17.821Z,5.40
2023-05-19T10:43:52.422Z,5.60
2023-05-19T10:46:25.030Z,5.15
2023-05-19T10:48:55.016Z,3.47
2023-05-19T10:51:22.874Z,5.03
2023-05-19T10:53:50.963Z,3.97
2023-05-19T10:56:37.972Z,3.95
2023-05-19T10:59:05.931Z,2.97
2023-05-19T11:01:34.651Z,4.30
2023-05-19T11:04:09.126Z,3.83
2023-05-19T11:06:37.889Z,2.95
2023-05-19T11:09:13.290Z,4.70
2023-05-19T11:11:48.979Z,2.13
2023-05-19T11:14:19.101Z,2.78
2023-05-19T11:16:48.727Z,4.72
2023-05-19T11:19:28.857Z,3.28
2023-05-19T11:21:57.658Z,2.95
2023-05-19T11:24:35.856Z,4.80
2023-05-19T11:27:19.087Z,2.75
2023-05-19T11:29:48.322Z,2.57
2023-05-19T11:32:16.649Z,2.78
2023-05-19T11:34:46.742Z,2.92
2023-05-19T11:37:14.439Z,2.65
2023-05-19T11:39:43.693Z,3.43
2023-05-19T11:42:11.834Z,3.93
2023-05-19T11:44:41.172Z,4.65
2023-05-19T11:47:09.056Z,3.25
2023-05-19T11:49:36.770Z,3.67
2023-05-19T11:52:07.315Z,3.08
2023-05-19T11:54:36.734Z,4.38
2023-05-19T11:57:05.419Z,4.07
2023-05-19T11:59:35.843Z,2.78
2023-05-19T12:02:06.360Z,4.35
2023-05-19T12:04:34.154Z,4.23
2023-05-19T12:07:01.888Z,2.08
2023-05-19T12:09:31.042Z,2.50
2023-05-19T12:11:58.776Z,4.82
2023-05-19T12:14:27.348Z,3.38
2023-05-19T12:16:55.138Z,2.03
2023-05-19T12:19:24.622Z,2.10
2023-05-19T12:21:52.576Z,2.20
2023-05-19T12:24:20.823Z,3.53
2023-05-19T12:26:50.391Z,1.90
2023-05-19T12:29:18.245Z,4.97
2023-05-19T12:33:52.432Z,6.20
2023-05-19T12:36:20.286Z,4.00
2023-05-19T12:38:48.697Z,5.00
2023-05-19T12:41:16.797Z,3.30
2023-05-19T12:43:44.552Z,3.55
2023-05-19T12:46:12.683Z,4.25
2023-05-19T12:48:45.853Z,3.78
2023-05-19T12:51:18.899Z,4.55
2023-05-19T12:53:47.299Z,3.08
2023-05-19T12:56:16.269Z,4.13
2023-05-19T12:58:44.062Z,2.47
2023-05-19T13:01:17.861Z,3.22
2023-05-19T13:03:46.144Z,2.38
2023-05-19T13:06:13.998Z,3.67
2023-05-19T13:08:43.181Z,4.50
2023-05-19T13:11:10.875Z,3.80
2023-05-19T13:13:38.629Z,1.40
2023-05-19T13:16:07.208Z,4.55
2023-05-19T13:18:37.592Z,10.57
2023-05-19T13:22:26.801Z,6.22
2023-05-19T13:25:28.669Z,3.27
2023-05-19T13:27:56.784Z,3.85
2023-05-19T13:30:25.723Z,2.55
2023-05-19T13:32:53.481Z,4.75
2023-05-19T13:35:21.375Z,3.00
2023-05-19T13:37:51.201Z,5.55
2023-05-19T13:40:19.210Z,3.90
2023-05-19T13:42:48.378Z,3.67
2023-05-19T13:45:16.174Z,3.05
2023-05-19T13:47:43.897Z,2.20
2023-05-19T13:50:12.301Z,2.45
2023-05-19T13:52:40.136Z,2.40
2023-05-19T13:55:08.571Z,2.88
2023-05-19T13:57:36.973Z,3.80
2023-05-19T14:00:07.789Z,2.53
2023-05-19T14:02:36.255Z,2.60
2023-05-19T14:05:04.097Z,3.67
2023-05-19T14:07:34.645Z,3.10
2023-05-19T14:10:02.681Z,3.40
2023-05-19T14:12:41.470Z,3.90
2023-05-19T14:15:16.526Z,3.95
2023-05-19T14:17:44.372Z,2.72
2023-05-19T14:20:12.834Z,2.50
2023-05-19T14:22:40.512Z,2.55
2023-05-19T14:25:09.212Z,4.45
2023-05-19T14:27:37.011Z,2.13
2023-05-19T14:30:05.282Z,4.53
2023-05-19T14:32:34.366Z,3.22
2023-05-19T14:37:32.424Z,2.47
2023-05-19T14:40:00.825Z,1.80
2023-05-19T14:42:28.503Z,2.17
2023-05-19T14:44:56.323Z,2.60
2023-05-19T14:47:26.173Z,2.30
2023-05-19T14:49:54.810Z,3.13
2023-05-19T14:52:22.950Z,2.33
2023-05-19T14:54:52.167Z,2.78
2023-05-19T14:57:19.808Z,3.13
2023-05-19T14:59:47.547Z,2.15
2023-05-19T15:02:15.354Z,3.17
2023-05-19T15:04:43.103Z,1.85
2023-05-19T15:07:11.236Z,1.27
2023-05-19T15:09:39.158Z,2.25
2023-05-19T15:12:08.479Z,2.90
2023-05-19T15:14:36.465Z,2.65
2023-05-19T15:17:04.371Z,1.92
2023-05-19T15:19:32.268Z,3.93
2023-05-19T15:22:00.100Z,2.50
2023-05-19T15:25:34.625Z,2.33
2023-05-19T15:28:02.367Z,1.40
2023-05-19T15:30:30.068Z,8.55
2023-05-19T15:32:57.927Z,6.75
2023-05-19T15:35:25.700Z,2.50
2023-05-19T15:37:53.495Z,3.25
2023-05-19T15:40:21.472Z,3.60
2023-05-19T15:42:50.712Z,1.63
2023-05-19T15:45:18.682Z,2.83
2023-05-19T15:47:46.444Z,1.83
2023-05-19T15:50:14.864Z,3.25
2023-05-19T15:52:43.326Z,2.80
2023-05-19T15:55:11.388Z,3.83
2023-05-19T15:57:39.130Z,2.05
2023-05-19T16:00:09.745Z,4.40
2023-05-19T16:02:37.597Z,2.30
2023-05-19T16:05:05.954Z,2.08
2023-05-19T16:07:33.708Z,2.10
2023-05-19T16:10:01.468Z,3.53
2023-05-19T16:12:29.607Z,2.10
2023-05-19T16:14:57.296Z,2.22
2023-05-19T16:17:26.482Z,1.52
2023-05-19T16:19:54.492Z,6.80
2023-05-19T16:22:24.630Z,3.13
2023-05-19T16:24:52.583Z,1.70
2023-05-19T16:27:20.361Z,1.83
2023-05-19T16:31:31.851Z,4.00
2023-05-19T16:33:59.591Z,2.55
2023-05-19T16:36:27.353Z,4.57
2023-05-19T16:39:11.792Z,2.17
2023-05-19T16:41:39.453Z,1.70
2023-05-19T16:46:31.551Z,3.05
2023-05-19T16:48:59.560Z,2.10
2023-05-19T16:51:27.359Z,2.47
2023-05-19T16:53:55.115Z,2.10
2023-05-19T17:10:12.015Z,1.02
2023-05-19T17:12:39.793Z,1.42
2023-05-19T17:15:08.627Z,2.50
2023-05-19T17:17:36.374Z,1.95
2023-05-19T17:20:04.391Z,3.53
2023-05-19T17:22:32.128Z,1.70
2023-05-19T17:24:59.845Z,2.63
2023-05-19T17:27:29.002Z,3.53
2023-05-19T17:30:53.801Z,1.45
2023-05-19T17:33:21.541Z,1.52
2023-05-19T17:35:49.345Z,1.48
2023-05-19T17:38:17.076Z,2.03
2023-05-19T17:40:44.808Z,2.67
2023-05-19T17:43:12.731Z,1.77
2023-05-19T17:45:40.478Z,1.38
2023-05-19T17:48:09.663Z,2.55
2023-05-19T17:50:37.382Z,2.75
2023-05-19T17:53:05.512Z,1.40
2023-05-19T17:55:34.115Z,2.00
2023-05-19T17:58:02.577Z,3.33
2023-05-19T18:00:30.910Z,2.70
2023-05-19T18:02:59.882Z,1.17
2023-05-19T18:05:29.770Z,1.00
2023-05-19T18:07:57.657Z,1.70
2023-05-19T18:10:26.573Z,0.82
2023-05-19T18:12:54.331Z,1.88
2023-05-19T18:15:22.160Z,3.22
2023-05-19T18:17:50.150Z,1.70
2023-05-19T18:20:18.004Z,1.00
2023-05-19T18:22:47.524Z,1.40
2023-05-19T18:25:16.892Z,3.70
2023-05-19T18:27:44.583Z,2.20
2023-05-19T18:30:12.785Z,1.77
2023-05-19T18:32:40.622Z,2.17
2023-05-19T18:35:09.521Z,2.20
2023-05-19T18:37:37.222Z,2.27
2023-05-19T18:40:07.985Z,1.40
2023-05-19T18:42:35.681Z,1.88
2023-05-19T18:45:03.660Z,1.92
2023-05-19T18:47:31.371Z,3.17
2023-05-19T18:49:59.114Z,1.42
2023-05-19T18:52:28.547Z,1.88
2023-05-19T18:54:56.684Z,0.80
2023-05-19T18:57:25.973Z,3.08
2023-05-19T18:59:53.691Z,1.45
2023-05-19T19:02:21.360Z,1.40
2023-05-19T19:04:49.166Z,2.13
2023-05-19T19:07:17.031Z,2.15
2023-05-19T19:09:45.129Z,2.60
2023-05-19T19:12:12.821Z,4.35
2023-05-19T19:14:42.004Z,1.20
2023-05-19T19:17:09.748Z,2.37
2023-05-19T19:19:37.587Z,1.90
2023-05-19T19:22:05.914Z,2.00
2023-05-19T19:24:33.648Z,2.30
2023-05-19T19:27:01.377Z,2.83
2023-05-19T19:29:29.101Z,3.50
2023-05-19T19:31:58.277Z,2.15
2023-05-19T19:34:26.221Z,2.58
2023-05-19T19:36:54.005Z,2.07
2023-05-19T19:39:21.737Z,2.40
2023-05-19T19:41:49.500Z,1.40
2023-05-19T19:44:17.372Z,1.17
2023-05-19T19:46:45.099Z,1.10
2023-05-19T19:49:14.201Z,1.25
2023-05-19T19:51:42.454Z,1.95
2023-05-19T19:54:10.272Z,1.80
2023-05-19T19:56:38.029Z,1.50
2023-05-19T19:59:05.753Z,2.20
2023-05-19T20:01:33.760Z,2.20
2023-05-19T20:04:01.738Z,2.75
2023-05-19T20:06:31.121Z,1.58
2023-05-19T20:08:58.875Z,1.70
2023-05-19T20:11:26.859Z,2.20
2023-05-19T20:13:54.619Z,2.25
2023-05-19T20:16:24.051Z,2.00
2023-05-19T20:18:52.010Z,2.05
2023-05-19T20:21:19.819Z,2.27
2023-05-19T20:23:50.375Z,3.70
2023-05-19T20:26:18.225Z,1.95
2023-05-19T20:28:46.388Z,3.13
2023-05-19T20:31:14.096Z,4.22
2023-05-19T20:33:41.853Z,3.78
2023-05-19T20:36:10.920Z,4.22
2023-05-19T20:38:38.692Z,4.60
2023-05-19T20:41:07.783Z,5.20
2023-05-19T20:43:35.702Z,3.05
2023-05-19T20:46:03.794Z,3.25
2023-05-19T20:48:31.648Z,7.55
2023-05-19T20:50:59.466Z,3.72
2023-05-19T20:53:27.259Z,5.60
2023-05-19T20:55:55.082Z,4.20
2023-05-19T20:58:26.912Z,4.43
2023-05-19T21:00:57.863Z,5.47
2023-05-19T21:03:26.975Z,5.05
2023-05-19T21:05:55.269Z,5.65
2023-05-19T21:08:23.039Z,4.32
2023-05-19T21:10:50.704Z,3.90
2023-05-19T21:13:18.986Z,5.22
2023-05-19T21:15:48.136Z,4.18
2023-05-19T21:18:15.939Z,4.72
2023-05-19T21:20:43.618Z,3.43
2023-05-19T21:23:11.342Z,4.65
2023-05-19T21:25:40.747Z,4.20
2023-05-19T21:28:08.434Z,8.00
2023-05-19T21:30:36.231Z,4.75
2023-05-19T21:33:05.602Z,4.90
2023-05-19T21:35:33.532Z,4.22
2023-05-19T21:38:11.937Z,4.87
2023-05-19T21:40:43.675Z,3.95
2023-05-19T21:43:12.543Z,5.75
2023-05-19T21:45:40.258Z,3.42
2023-05-19T21:48:09.452Z,3.20
2023-05-19T21:50:38.353Z,4.47
2023-05-19T21:53:06.476Z,4.15
2023-05-19T21:55:34.271Z,4.65
2023-05-19T21:58:02.761Z,4.28
2023-05-19T22:00:30.600Z,3.60
2023-05-19T22:02:58.456Z,5.80
2023-05-19T22:05:27.747Z,4.90
2023-05-19T22:07:55.612Z,2.97
2023-05-19T22:10:23.416Z,3.83
2023-05-19T22:12:51.176Z,4.03
2023-05-19T22:15:19.205Z,4.93
2023-05-19T22:17:47.093Z,5.60
2023-05-19T22:20:14.895Z,4.82
2023-05-19T22:22:44.040Z,4.32
2023-05-19T22:25:11.738Z,4.17
2023-05-19T22:27:39.471Z,5.20
2023-05-19T22:30:08.599Z,5.85
2023-05-19T22:32:36.667Z,4.90
2023-05-19T22:35:06.310Z,5.03
2023-05-19T22:37:34.082Z,4.77
2023-05-19T22:40:03.378Z,6.13
2023-05-19T22:42:31.126Z,3.90
2023-05-19T22:44:59.058Z,5.15
2023-05-19T22:47:27.014Z,5.80
2023-05-19T22:49:55.673Z,5.55
2023-05-19T22:52:24.847Z,7.95
2023-05-19T22:54:52.595Z,4.13
2023-05-19T22:57:21.838Z,8.40
2023-05-19T22:59:49.636Z,5.20
2023-05-19T23:02:17.383Z,5.60
2023-05-19T23:04:45.203Z,6.40
2023-05-19T23:07:12.923Z,4.43
2023-05-19T23:09:40.645Z,4.47
2023-05-19T23:12:08.400Z,5.03
2023-05-19T23:14:37.539Z,4.25
2023-05-19T23:17:05.582Z,6.07
2023-05-19T23:19:35.006Z,4.68
2023-05-19T23:22:02.719Z,5.18
2023-05-19T23:24:30.521Z,4.15
2023-05-19T23:26:58.210Z,3.67
2023-05-19T23:29:26.247Z,4.30
2023-05-19T23:31:55.406Z,5.38
2023-05-19T23:34:23.183Z,2.90
2023-05-19T23:36:50.872Z,6.32
2023-05-19T23:39:18.613Z,6.00
2023-05-19T23:41:46.350Z,5.53
2023-05-19T23:44:14.003Z,4.22
2023-05-19T23:46:41.969Z,5.80
2023-05-19T23:49:11.162Z,6.78
2023-05-19T23:51:38.886Z,4.55
2023-05-19T23:54:06.683Z,3.00
2023-05-19T23:56:34.419Z,5.15
2023-05-19T23:59:02.254Z,8.27
